createdAt,value
2023-03-03T00:00:54.342Z,52.70
2023-03-03T00:01:54.284Z,52.80
2023-03-03T00:02:54.257Z,53.90
2023-03-03T00:03:54.212Z,51.70
2023-03-03T00:04:54.148Z,52.40
2023-03-03T00:06:03.654Z,55.10
2023-03-03T00:06:55.057Z,53.30
2023-03-03T00:07:55.045Z,53.40
2023-03-03T00:08:55.303Z,52.40
2023-03-03T00:09:54.507Z,52.40
2023-03-03T00:10:54.835Z,54.30
2023-03-03T00:11:53.898Z,53.80
2023-03-03T00:12:53.903Z,54.10
2023-03-03T00:13:59.042Z,54.60
2023-03-03T00:14:53.751Z,53.80
2023-03-03T00:15:53.742Z,54.70
2023-03-03T00:16:54.414Z,53.00
2023-03-03T00:17:53.563Z,53.30
2023-03-03T00:18:53.532Z,52.90
2023-03-03T00:19:53.633Z,52.50
2023-03-03T00:20:53.471Z,51.80
2023-03-03T00:21:54.915Z,52.80
2023-03-03T00:22:56.112Z,54.20
2023-03-03T00:23:53.390Z,54.80
2023-03-03T00:24:53.414Z,53.60
2023-03-03T00:25:53.291Z,52.50
2023-03-03T00:26:53.168Z,52.90
2023-03-03T00:27:53.105Z,52.60
2023-03-03T00:28:53.105Z,53.10
2023-03-03T00:29:53.014Z,52.50
2023-03-03T00:30:53.028Z,52.10
2023-03-03T00:31:53.053Z,50.90
2023-03-03T00:32:52.899Z,52.80
2023-03-03T00:33:52.831Z,52.30
2023-03-03T00:34:52.845Z,52.80
2023-03-03T00:35:52.773Z,52.30
2023-03-03T00:36:54.558Z,51.50
2023-03-03T00:37:56.933Z,52.20
2023-03-03T00:38:54.424Z,51.60
2023-03-03T00:39:54.419Z,52.10
2023-03-03T00:40:53.577Z,51.90
2023-03-03T00:41:53.923Z,51.60
2023-03-03T00:42:52.560Z,51.50
2023-03-03T00:43:52.366Z,50.80
2023-03-03T00:44:52.301Z,52.20
2023-03-03T00:45:52.397Z,51.60
2023-03-03T00:46:52.217Z,52.00
2023-03-03T00:47:52.191Z,51.00
2023-03-03T00:48:52.139Z,52.20
2023-03-03T00:49:52.096Z,51.40
2023-03-03T00:50:52.019Z,50.90
2023-03-03T00:51:51.999Z,51.00
2023-03-03T00:52:51.960Z,51.90
2023-03-03T00:53:51.904Z,51.00
2023-03-03T00:54:51.879Z,50.50
2023-03-03T00:55:51.808Z,51.60
2023-03-03T00:56:51.759Z,51.00
2023-03-03T00:57:51.737Z,51.50
2023-03-03T00:58:51.712Z,50.80
2023-03-03T00:59:51.631Z,49.70
2023-03-03T01:00:51.606Z,50.70
2023-03-03T01:01:51.560Z,50.50
2023-03-03T01:02:51.508Z,50.00
2023-03-03T01:03:51.440Z,49.80
2023-03-03T01:04:51.411Z,49.40
2023-03-03T01:05:51.339Z,48.50
2023-03-03T01:06:51.293Z,48.70
2023-03-03T01:07:51.250Z,49.40
2023-03-03T01:08:51.207Z,49.40
2023-03-03T01:09:51.167Z,49.60
2023-03-03T01:10:51.200Z,51.30
2023-03-03T01:11:51.074Z,49.60
2023-03-03T01:12:51.025Z,50.90
2023-03-03T01:13:50.992Z,51.80
2023-03-03T01:14:50.952Z,50.70
2023-03-03T01:15:50.981Z,50.40
2023-03-03T01:16:50.842Z,51.00
2023-03-03T01:17:50.839Z,51.10
2023-03-03T01:18:50.812Z,51.10
2023-03-03T01:19:50.734Z,48.90
2023-03-03T01:20:50.666Z,50.60
2023-03-03T01:21:50.636Z,50.40
2023-03-03T01:22:50.599Z,51.30
2023-03-03T01:23:50.537Z,49.20
2023-03-03T01:24:50.508Z,50.40
2023-03-03T01:25:50.467Z,49.80
2023-03-03T01:26:50.382Z,48.40
2023-03-03T01:27:50.359Z,49.60
2023-03-03T01:28:50.314Z,50.40
2023-03-03T01:29:50.259Z,49.00
2023-03-03T01:30:50.229Z,49.70
2023-03-03T01:31:50.181Z,50.40
2023-03-03T01:32:50.121Z,48.00
2023-03-03T01:33:50.064Z,48.50
2023-03-03T01:34:50.059Z,48.20
2023-03-03T01:35:49.994Z,47.70
2023-03-03T01:36:49.945Z,47.30
2023-03-03T01:37:49.910Z,47.10
2023-03-03T01:38:49.830Z,47.50
2023-03-03T01:39:49.821Z,48.70
2023-03-03T01:40:49.746Z,46.10
2023-03-03T01:41:49.722Z,46.50
2023-03-03T01:42:49.651Z,46.10
2023-03-03T01:43:49.635Z,46.40
2023-03-03T01:44:49.564Z,45.60
2023-03-03T01:45:49.534Z,46.10
2023-03-03T01:46:49.558Z,45.70
2023-03-03T01:47:49.421Z,45.70
2023-03-03T01:48:49.366Z,46.00
2023-03-03T01:49:49.337Z,44.10
2023-03-03T01:50:49.286Z,44.50
2023-03-03T01:51:49.234Z,44.70
2023-03-03T01:52:49.197Z,44.50
2023-03-03T01:53:49.156Z,45.10
2023-03-03T01:54:49.094Z,45.80
2023-03-03T01:55:49.062Z,45.30
2023-03-03T01:56:49.006Z,45.00
2023-03-03T01:57:48.988Z,45.10
2023-03-03T01:58:48.914Z,44.70
2023-03-03T01:59:48.890Z,43.70
2023-03-03T02:00:48.824Z,45.10
2023-03-03T02:01:48.923Z,45.10
2023-03-03T02:02:48.792Z,45.60
2023-03-03T02:03:48.765Z,44.30
2023-03-03T02:04:48.649Z,46.00
2023-03-03T02:05:48.600Z,45.20
2023-03-03T02:06:48.573Z,45.10
2023-03-03T02:07:48.523Z,46.30
2023-03-03T02:08:48.571Z,45.70
2023-03-03T02:09:48.431Z,44.50
2023-03-03T02:10:48.357Z,45.50
2023-03-03T02:11:48.318Z,45.70
2023-03-03T02:12:48.283Z,45.90
2023-03-03T02:13:48.220Z,46.30
2023-03-03T02:14:48.206Z,46.40
2023-03-03T02:15:48.231Z,46.60
2023-03-03T02:16:48.094Z,45.40
2023-03-03T02:17:48.037Z,46.00
2023-03-03T02:18:47.993Z,47.90
2023-03-03T02:19:47.957Z,45.50
2023-03-03T02:20:47.930Z,47.70
2023-03-03T02:21:47.883Z,46.80
2023-03-03T02:22:47.823Z,46.50
2023-03-03T02:23:47.784Z,45.50
2023-03-03T02:24:47.746Z,46.60
2023-03-03T02:25:47.691Z,47.70
2023-03-03T02:26:47.647Z,46.00
2023-03-03T02:27:47.581Z,46.40
2023-03-03T02:28:47.571Z,45.60
2023-03-03T02:29:47.489Z,46.50
2023-03-03T02:30:47.459Z,46.10
2023-03-03T02:31:47.485Z,47.80
2023-03-03T02:32:47.381Z,45.60
2023-03-03T02:33:47.319Z,45.60
2023-03-03T02:34:47.283Z,45.70
2023-03-03T02:35:47.263Z,46.10
2023-03-03T02:36:47.172Z,46.80
2023-03-03T02:37:47.159Z,45.80
2023-03-03T02:38:47.081Z,46.10
2023-03-03T02:39:47.950Z,46.50
2023-03-03T02:40:47.028Z,46.20
2023-03-03T02:41:47.019Z,46.60
2023-03-03T02:42:46.952Z,44.90
2023-03-03T02:43:46.860Z,44.90
2023-03-03T02:44:46.803Z,45.20
2023-03-03T02:45:46.829Z,44.10
2023-03-03T02:46:46.755Z,46.00
2023-03-03T02:47:46.694Z,45.30
2023-03-03T02:48:46.625Z,45.70
2023-03-03T02:49:46.586Z,45.00
2023-03-03T02:50:46.530Z,45.00
2023-03-03T02:51:46.496Z,44.70
2023-03-03T02:52:46.458Z,45.30
2023-03-03T02:53:46.403Z,45.50
2023-03-03T02:54:46.369Z,45.20
2023-03-03T02:55:46.303Z,44.80
2023-03-03T02:56:46.262Z,44.60
2023-03-03T02:57:46.209Z,45.00
2023-03-03T02:58:46.159Z,45.50
2023-03-03T02:59:46.133Z,45.70
2023-03-03T03:00:46.116Z,46.80
2023-03-03T03:01:46.030Z,45.80
2023-03-03T03:02:46.009Z,44.80
2023-03-03T03:03:45.943Z,44.10
2023-03-03T03:04:45.902Z,45.60
2023-03-03T03:05:45.827Z,45.20
2023-03-03T03:06:45.782Z,44.90
2023-03-03T03:07:45.773Z,45.90
2023-03-03T03:08:45.709Z,44.90
2023-03-03T03:09:45.709Z,46.40
2023-03-03T03:10:45.596Z,46.10
2023-03-03T03:11:45.579Z,44.60
2023-03-03T03:12:45.538Z,45.60
2023-03-03T03:13:45.510Z,46.30
2023-03-03T03:14:45.450Z,47.60
2023-03-03T03:15:45.375Z,47.10
2023-03-03T03:16:45.373Z,46.90
2023-03-03T03:17:45.290Z,47.30
2023-03-03T03:18:45.263Z,47.80
2023-03-03T03:19:45.222Z,48.60
2023-03-03T03:20:46.917Z,49.00
2023-03-03T03:21:45.138Z,49.40
2023-03-03T03:22:45.084Z,49.00
2023-03-03T03:23:45.055Z,48.10
2023-03-03T03:24:45.032Z,47.70
2023-03-03T03:25:44.962Z,48.90
2023-03-03T03:26:44.891Z,47.40
2023-03-03T03:27:44.839Z,49.50
2023-03-03T03:28:44.860Z,49.50
2023-03-03T03:29:44.791Z,49.20
2023-03-03T03:30:44.780Z,49.10
2023-03-03T03:31:44.653Z,49.40
2023-03-03T03:32:44.622Z,49.60
2023-03-03T03:33:44.595Z,49.90
2023-03-03T03:34:44.527Z,48.80
2023-03-03T03:35:44.531Z,50.10
2023-03-03T03:36:44.453Z,48.20
2023-03-03T03:37:44.392Z,48.60
2023-03-03T03:38:44.366Z,48.90
2023-03-03T03:39:44.296Z,48.30
2023-03-03T03:40:44.241Z,49.30
2023-03-03T03:41:44.247Z,50.00
2023-03-03T03:42:44.185Z,48.60
2023-03-03T03:43:44.118Z,47.90
2023-03-03T03:44:44.086Z,47.50
2023-03-03T03:45:44.087Z,48.50
2023-03-03T03:46:43.960Z,46.90
2023-03-03T03:47:44.021Z,48.60
2023-03-03T03:48:43.899Z,48.40
2023-03-03T03:49:43.881Z,47.90
2023-03-03T03:50:43.801Z,48.40
2023-03-03T03:51:44.079Z,49.10
2023-03-03T03:52:43.719Z,49.90
2023-03-03T03:53:43.661Z,49.00
2023-03-03T03:54:43.655Z,48.30
2023-03-03T03:55:43.566Z,48.50
2023-03-03T03:56:43.503Z,48.50
2023-03-03T03:57:43.499Z,48.20
2023-03-03T03:58:43.425Z,49.80
2023-03-03T03:59:43.409Z,49.30
2023-03-03T04:00:43.324Z,50.60
2023-03-03T04:01:43.324Z,51.20
2023-03-03T04:02:43.299Z,50.20
2023-03-03T04:03:43.254Z,51.10
2023-03-03T04:04:43.195Z,52.40
2023-03-03T04:05:43.128Z,52.10
2023-03-03T04:06:43.048Z,51.60
2023-03-03T04:07:43.037Z,50.70
2023-03-03T04:08:42.976Z,51.60
2023-03-03T04:09:42.946Z,53.10
2023-03-03T04:10:42.906Z,51.70
2023-03-03T04:11:42.873Z,52.30
2023-03-03T04:12:42.821Z,52.80
2023-03-03T04:13:42.762Z,51.30
2023-03-03T04:14:42.701Z,50.60
2023-03-03T04:15:42.741Z,48.90
2023-03-03T04:16:42.602Z,50.00
2023-03-03T04:17:42.589Z,48.40
2023-03-03T04:18:43.510Z,50.20
2023-03-03T04:19:42.493Z,50.10
2023-03-03T04:20:42.439Z,48.80
2023-03-03T04:21:42.379Z,48.50
2023-03-03T04:22:42.340Z,49.60
2023-03-03T04:23:42.354Z,49.40
2023-03-03T04:24:42.280Z,50.80
2023-03-03T04:25:42.219Z,49.80
2023-03-03T04:26:42.163Z,49.60
2023-03-03T04:27:42.155Z,50.50
2023-03-03T04:28:42.075Z,50.50
2023-03-03T04:29:42.034Z,50.10
2023-03-03T04:30:42.069Z,50.20
2023-03-03T04:31:41.929Z,50.00
2023-03-03T04:32:41.870Z,51.00
2023-03-03T04:33:41.827Z,52.20
2023-03-03T04:34:41.797Z,53.00
2023-03-03T04:35:41.772Z,52.90
2023-03-03T04:36:41.716Z,54.80
2023-03-03T04:37:41.662Z,54.20
2023-03-03T04:38:41.585Z,52.60
2023-03-03T04:39:41.548Z,54.10
2023-03-03T04:40:41.710Z,54.50
2023-03-03T04:41:41.494Z,54.90
2023-03-03T04:42:41.415Z,54.60
2023-03-03T04:43:41.358Z,55.40
2023-03-03T04:44:41.320Z,55.10
2023-03-03T04:45:41.295Z,56.00
2023-03-03T04:46:41.230Z,60.00
2023-03-03T04:47:41.208Z,61.30
2023-03-03T04:48:41.122Z,63.00
2023-03-03T04:49:41.113Z,60.90
2023-03-03T04:50:41.974Z,64.40
2023-03-03T04:51:40.997Z,67.10
2023-03-03T04:52:41.003Z,65.00
2023-03-03T04:53:40.916Z,65.00
2023-03-03T04:54:40.852Z,65.50
2023-03-03T04:55:40.825Z,66.20
2023-03-03T04:56:40.778Z,67.00
2023-03-03T04:57:40.721Z,67.00
2023-03-03T04:58:40.705Z,66.10
2023-03-03T04:59:40.647Z,67.20
2023-03-03T05:00:40.606Z,68.60
2023-03-03T05:01:40.567Z,66.90
2023-03-03T05:02:40.526Z,68.90
2023-03-03T05:03:40.470Z,66.90
2023-03-03T05:04:40.461Z,70.80
2023-03-03T05:05:40.358Z,71.20
2023-03-03T05:06:40.322Z,69.40
2023-03-03T05:07:40.288Z,67.60
2023-03-03T05:08:40.244Z,68.60
2023-03-03T05:09:40.159Z,70.30
2023-03-03T05:10:40.125Z,70.10
2023-03-03T05:11:40.102Z,69.30
2023-03-03T05:12:40.042Z,71.30
2023-03-03T05:13:40.027Z,71.00
2023-03-03T05:14:39.983Z,71.20
2023-03-03T05:15:42.222Z,70.30
2023-03-03T05:16:39.868Z,68.90
2023-03-03T05:17:39.844Z,67.90
2023-03-03T05:18:39.748Z,68.40
2023-03-03T05:19:39.724Z,66.60
2023-03-03T05:20:39.660Z,66.10
2023-03-03T05:21:39.643Z,65.10
2023-03-03T05:22:39.597Z,67.70
2023-03-03T05:23:39.530Z,64.70
2023-03-03T05:24:39.490Z,65.40
2023-03-03T05:25:39.431Z,64.10
2023-03-03T05:26:39.385Z,61.90
2023-03-03T05:27:39.341Z,61.80
2023-03-03T05:28:39.315Z,63.20
2023-03-03T05:29:39.253Z,64.20
2023-03-03T05:30:39.221Z,61.50
2023-03-03T05:31:39.265Z,60.60
2023-03-03T05:32:39.142Z,61.80
2023-03-03T05:33:39.100Z,60.90
2023-03-03T05:34:39.032Z,60.60
2023-03-03T05:35:39.039Z,59.90
2023-03-03T05:36:38.938Z,58.90
2023-03-03T05:37:38.935Z,57.80
2023-03-03T05:38:38.872Z,58.60
2023-03-03T05:39:38.801Z,57.80
2023-03-03T05:40:38.749Z,58.00
2023-03-03T05:41:38.701Z,60.10
2023-03-03T05:42:38.713Z,58.60
2023-03-03T05:43:38.614Z,59.30
2023-03-03T05:44:38.584Z,60.10
2023-03-03T05:45:38.572Z,60.10
2023-03-03T05:46:38.491Z,61.30
2023-03-03T05:47:38.424Z,61.30
2023-03-03T05:48:38.388Z,59.50
2023-03-03T05:49:38.328Z,58.90
2023-03-03T05:50:38.293Z,60.70
2023-03-03T05:51:38.292Z,62.70
2023-03-03T05:52:38.255Z,62.00
2023-03-03T05:53:38.159Z,61.20
2023-03-03T05:54:38.108Z,61.90
2023-03-03T05:55:38.073Z,63.90
2023-03-03T05:56:38.018Z,62.20
2023-03-03T05:57:37.982Z,62.70
2023-03-03T05:58:38.471Z,60.90
2023-03-03T05:59:37.873Z,61.10
2023-03-03T06:00:37.817Z,62.60
2023-03-03T06:01:37.810Z,60.50
2023-03-03T06:02:37.760Z,61.70
2023-03-03T06:03:37.689Z,60.90
2023-03-03T06:04:37.673Z,62.20
2023-03-03T06:05:37.596Z,61.60
2023-03-03T06:06:44.602Z,59.30
2023-03-03T06:07:37.479Z,58.70
2023-03-03T06:08:37.436Z,61.10
2023-03-03T06:09:37.392Z,59.80
2023-03-03T06:10:37.342Z,59.30
2023-03-03T06:11:37.300Z,59.10
2023-03-03T06:12:37.261Z,58.80
2023-03-03T06:13:37.205Z,59.40
2023-03-03T06:14:37.162Z,59.50
2023-03-03T06:15:37.142Z,57.60
2023-03-03T06:16:37.107Z,58.00
2023-03-03T06:17:37.021Z,59.30
2023-03-03T06:18:37.024Z,58.30
2023-03-03T06:19:36.930Z,58.40
2023-03-03T06:20:36.885Z,56.30
2023-03-03T06:21:36.849Z,53.90
2023-03-03T06:22:36.795Z,54.40
2023-03-03T06:23:36.760Z,52.70
2023-03-03T06:24:36.701Z,52.20
2023-03-03T06:25:36.667Z,52.10
2023-03-03T06:26:36.621Z,52.40
2023-03-03T06:27:36.575Z,51.60
2023-03-03T06:28:36.541Z,51.30
2023-03-03T06:29:36.478Z,50.80
2023-03-03T06:30:36.432Z,49.50
2023-03-03T06:31:36.429Z,50.50
2023-03-03T06:32:36.400Z,50.60
2023-03-03T06:33:36.287Z,49.40
2023-03-03T06:34:36.263Z,49.90
2023-03-03T06:35:36.249Z,50.20
2023-03-03T06:36:36.152Z,50.30
2023-03-03T06:37:36.104Z,49.20
2023-03-03T06:38:36.073Z,48.20
2023-03-03T06:39:36.013Z,46.90
2023-03-03T06:40:35.993Z,48.70
2023-03-03T06:41:35.919Z,48.30
2023-03-03T06:42:35.888Z,49.40
2023-03-03T06:43:35.841Z,47.60
2023-03-03T06:44:35.781Z,47.50
2023-03-03T06:45:35.802Z,49.40
2023-03-03T06:46:35.708Z,47.30
2023-03-03T06:47:35.659Z,48.20
2023-03-03T06:48:35.615Z,46.50
2023-03-03T06:49:35.556Z,48.30
2023-03-03T06:50:35.506Z,49.10
2023-03-03T06:51:35.459Z,48.60
2023-03-03T06:52:35.437Z,48.40
2023-03-03T06:53:35.368Z,48.40
2023-03-03T06:54:35.337Z,47.60
2023-03-03T06:55:35.299Z,47.60
2023-03-03T06:56:35.234Z,49.00
2023-03-03T06:57:35.184Z,49.90
2023-03-03T06:58:35.142Z,49.10
2023-03-03T06:59:35.093Z,47.30
2023-03-03T07:00:35.064Z,47.90
2023-03-03T07:01:35.000Z,48.60
2023-03-03T07:02:34.973Z,47.50
2023-03-03T07:03:34.915Z,48.00
2023-03-03T07:04:34.950Z,49.00
2023-03-03T07:05:34.849Z,50.20
2023-03-03T07:06:34.783Z,50.30
2023-03-03T07:07:34.735Z,50.90
2023-03-03T07:08:34.693Z,48.90
2023-03-03T07:09:34.648Z,47.00
2023-03-03T07:10:34.608Z,47.50
2023-03-03T07:11:34.575Z,45.90
2023-03-03T07:12:34.522Z,46.80
2023-03-03T07:13:34.469Z,45.50
2023-03-03T07:14:34.423Z,44.80
2023-03-03T07:15:34.381Z,45.20
2023-03-03T07:16:34.358Z,43.60
2023-03-03T07:17:34.293Z,43.60
2023-03-03T07:18:34.260Z,44.70
2023-03-03T07:19:34.192Z,43.90
2023-03-03T07:20:34.152Z,43.70
2023-03-03T07:21:34.115Z,43.60
2023-03-03T07:22:34.068Z,43.20
2023-03-03T07:23:34.022Z,44.60
2023-03-03T07:24:33.970Z,43.50
2023-03-03T07:25:33.921Z,43.20
2023-03-03T07:26:33.883Z,43.20
2023-03-03T07:27:33.838Z,43.20
2023-03-03T07:28:33.796Z,42.90
2023-03-03T07:29:33.761Z,42.20
2023-03-03T07:30:33.807Z,42.80
2023-03-03T07:31:33.648Z,42.70
2023-03-03T07:32:33.640Z,42.10
2023-03-03T07:33:33.578Z,43.30
2023-03-03T07:34:33.532Z,42.10
2023-03-03T07:35:33.496Z,40.90
2023-03-03T07:36:33.424Z,40.40
2023-03-03T07:37:33.376Z,40.60
2023-03-03T07:38:33.334Z,41.00
2023-03-03T07:39:33.291Z,39.60
2023-03-03T07:40:33.262Z,40.50
2023-03-03T07:41:33.207Z,39.10
2023-03-03T07:42:33.154Z,39.30
2023-03-03T07:43:33.105Z,39.90
2023-03-03T07:44:33.071Z,39.10
2023-03-03T07:45:33.016Z,38.90
2023-03-03T07:46:33.021Z,38.00
2023-03-03T07:47:32.923Z,38.60
2023-03-03T07:48:32.886Z,38.40
2023-03-03T07:49:32.932Z,38.70
2023-03-03T07:50:32.794Z,38.90
2023-03-03T07:51:32.756Z,38.10
2023-03-03T07:52:32.722Z,37.80
2023-03-03T07:53:32.654Z,37.20
2023-03-03T07:54:32.616Z,37.60
2023-03-03T07:55:32.566Z,38.00
2023-03-03T07:56:32.524Z,37.60
2023-03-03T07:57:32.473Z,38.40
2023-03-03T07:58:32.449Z,37.90
2023-03-03T07:59:32.384Z,37.60
2023-03-03T08:00:32.365Z,38.50
2023-03-03T08:01:32.292Z,38.30
2023-03-03T08:02:32.251Z,36.90
2023-03-03T08:03:32.201Z,37.00
2023-03-03T08:04:32.283Z,38.70
2023-03-03T08:05:32.233Z,37.80
2023-03-03T08:06:32.077Z,38.20
2023-03-03T08:07:32.019Z,38.30
2023-03-03T08:08:31.992Z,37.60
2023-03-03T08:09:31.947Z,38.10
2023-03-03T08:10:31.971Z,37.20
2023-03-03T08:11:31.837Z,38.20
2023-03-03T08:12:31.812Z,36.50
2023-03-03T08:13:31.763Z,35.90
2023-03-03T08:14:31.700Z,35.50
2023-03-03T08:15:31.688Z,36.00
2023-03-03T08:16:31.641Z,35.30
2023-03-03T08:17:31.561Z,35.30
2023-03-03T08:18:31.514Z,34.40
2023-03-03T08:19:31.471Z,34.10
2023-03-03T08:20:31.436Z,34.40
2023-03-03T08:21:31.394Z,34.30
2023-03-03T08:22:31.355Z,34.50
2023-03-03T08:23:31.282Z,33.70
2023-03-03T08:24:31.238Z,34.80
2023-03-03T08:25:31.207Z,33.60
2023-03-03T08:26:31.154Z,34.20
2023-03-03T08:27:31.125Z,33.20
2023-03-03T08:28:31.094Z,33.20
2023-03-03T08:29:31.084Z,33.60
2023-03-03T08:30:30.970Z,35.10
2023-03-03T08:31:40.833Z,35.70
2023-03-03T08:32:31.064Z,35.10
2023-03-03T08:33:30.852Z,36.10
2023-03-03T08:34:30.790Z,36.90
2023-03-03T08:35:30.761Z,39.00
2023-03-03T08:36:31.584Z,37.30
2023-03-03T08:37:30.645Z,38.90
2023-03-03T08:38:30.607Z,38.90
2023-03-03T08:39:30.597Z,39.80
2023-03-03T08:40:30.550Z,40.20
2023-03-03T08:41:30.473Z,39.30
2023-03-03T08:42:30.423Z,41.10
2023-03-03T08:43:30.380Z,40.30
2023-03-03T08:44:30.341Z,40.90
2023-03-03T08:45:30.288Z,41.00
2023-03-03T08:46:30.303Z,41.10
2023-03-03T08:47:30.213Z,40.00
2023-03-03T08:48:30.162Z,40.40
2023-03-03T08:49:30.117Z,40.30
2023-03-03T08:50:30.077Z,42.00
2023-03-03T08:51:30.031Z,40.60
2023-03-03T08:52:30.005Z,41.30
2023-03-03T08:53:29.944Z,40.40
2023-03-03T08:54:29.901Z,39.70
2023-03-03T08:55:29.856Z,41.10
2023-03-03T08:56:29.815Z,39.20
2023-03-03T08:57:29.770Z,40.50
2023-03-03T08:58:35.225Z,38.90
2023-03-03T08:59:29.677Z,40.20
2023-03-03T09:00:29.639Z,39.60
2023-03-03T09:01:29.607Z,40.70
2023-03-03T09:02:29.553Z,41.40
2023-03-03T09:03:30.046Z,40.90
2023-03-03T09:04:30.054Z,40.50
2023-03-03T09:05:32.236Z,40.20
2023-03-03T09:06:55.531Z,39.30
2023-03-03T09:07:30.800Z,40.60
2023-03-03T09:08:29.275Z,40.80
2023-03-03T09:09:29.231Z,40.80
2023-03-03T09:10:29.177Z,42.10
2023-03-03T09:11:29.181Z,42.60
2023-03-03T09:12:29.200Z,41.60
2023-03-03T09:13:29.595Z,42.30
2023-03-03T09:14:29.003Z,42.00
2023-03-03T09:15:28.962Z,42.00
2023-03-03T09:16:29.124Z,42.80
2023-03-03T09:17:28.889Z,43.00
2023-03-03T09:18:28.826Z,42.00
2023-03-03T09:19:28.779Z,42.70
2023-03-03T09:20:28.732Z,42.70
2023-03-03T09:21:28.679Z,42.90
2023-03-03T09:22:28.646Z,41.00
2023-03-03T09:23:28.722Z,42.70
2023-03-03T09:24:28.573Z,41.20
2023-03-03T09:25:28.494Z,42.50
2023-03-03T09:26:28.597Z,42.00
2023-03-03T09:27:34.041Z,40.70
2023-03-03T09:28:29.280Z,40.20
2023-03-03T09:29:30.030Z,40.80
2023-03-03T09:30:29.533Z,40.90
2023-03-03T09:31:29.100Z,39.80
2023-03-03T09:32:54.556Z,40.20
2023-03-03T09:33:33.060Z,39.00
2023-03-03T09:35:28.214Z,39.90
2023-03-03T09:36:33.544Z,39.00
2023-03-03T09:37:28.050Z,39.70
2023-03-03T09:38:28.032Z,40.70
2023-03-03T09:39:27.979Z,39.60
2023-03-03T09:40:27.992Z,39.60
2023-03-03T09:41:27.817Z,39.00
2023-03-03T09:42:27.766Z,39.90
2023-03-03T09:43:27.701Z,38.70
2023-03-03T09:44:27.657Z,39.90
2023-03-03T09:45:27.627Z,39.50
2023-03-03T09:46:27.621Z,39.10
2023-03-03T09:47:27.783Z,40.80
2023-03-03T09:48:28.071Z,39.40
2023-03-03T09:49:28.160Z,39.30
2023-03-03T09:50:27.457Z,39.60
2023-03-03T09:51:27.433Z,39.40
2023-03-03T09:52:27.449Z,39.90
2023-03-03T09:53:28.183Z,38.80
2023-03-03T09:54:28.149Z,39.20
2023-03-03T09:55:27.208Z,39.30
2023-03-03T09:56:34.039Z,40.70
2023-03-03T09:57:28.105Z,39.90
2023-03-03T09:58:27.094Z,39.10
2023-03-03T09:59:27.035Z,39.50
2023-03-03T10:00:27.005Z,39.20
2023-03-03T10:01:32.041Z,40.20
2023-03-03T10:02:29.543Z,40.40
2023-03-03T10:03:26.927Z,39.60
2023-03-03T10:04:29.794Z,39.50
2023-03-03T10:05:27.024Z,39.40
2023-03-03T10:06:26.709Z,40.20
2023-03-03T10:07:27.538Z,39.10
2023-03-03T10:08:26.612Z,40.90
2023-03-03T10:09:26.594Z,40.10
2023-03-03T10:10:26.543Z,40.30
2023-03-03T10:11:26.457Z,39.90
2023-03-03T10:12:26.464Z,41.10
2023-03-03T10:13:26.464Z,39.40
2023-03-03T10:14:26.378Z,39.20
2023-03-03T10:15:26.367Z,39.10
2023-03-03T10:16:26.281Z,39.50
2023-03-03T10:17:27.046Z,40.00
2023-03-03T10:18:26.216Z,39.30
2023-03-03T10:19:26.143Z,41.20
2023-03-03T10:20:26.073Z,40.40
2023-03-03T10:21:26.652Z,40.00
2023-03-03T10:22:25.966Z,39.20
2023-03-03T10:23:25.923Z,39.10
2023-03-03T10:24:25.892Z,39.90
2023-03-03T10:25:25.879Z,39.00
2023-03-03T10:26:41.944Z,39.00
2023-03-03T10:27:26.544Z,39.50
2023-03-03T10:28:25.743Z,39.10
2023-03-03T10:29:25.718Z,38.90
2023-03-03T10:30:38.931Z,38.20
2023-03-03T10:31:29.186Z,40.00
2023-03-03T10:32:26.232Z,39.30
2023-03-03T10:33:25.775Z,38.10
2023-03-03T10:34:25.490Z,39.50
2023-03-03T10:35:26.194Z,39.00
2023-03-03T10:36:25.511Z,38.70
2023-03-03T10:37:25.484Z,40.30
2023-03-03T10:38:26.057Z,39.50
2023-03-03T10:39:25.310Z,39.90
2023-03-03T10:40:25.316Z,40.90
2023-03-03T10:41:25.183Z,40.10
2023-03-03T10:42:25.612Z,40.80
2023-03-03T10:43:31.864Z,39.30
2023-03-03T10:44:25.559Z,40.90
2023-03-03T10:45:25.214Z,40.20
2023-03-03T10:46:24.994Z,38.90
2023-03-03T10:47:26.556Z,39.30
2023-03-03T10:48:25.565Z,40.00
2023-03-03T10:49:25.559Z,40.20
2023-03-03T10:50:26.558Z,38.50
2023-03-03T10:51:27.080Z,39.50
2023-03-03T10:52:25.809Z,39.20
2023-03-03T10:53:25.113Z,39.00
2023-03-03T10:54:25.195Z,37.60
2023-03-03T10:55:25.590Z,37.50
2023-03-03T10:56:25.549Z,37.00
2023-03-03T10:57:24.537Z,38.20
2023-03-03T10:58:25.107Z,37.00
2023-03-03T10:59:25.248Z,36.60
2023-03-03T11:00:25.846Z,37.70
2023-03-03T11:01:24.797Z,36.90
2023-03-03T11:02:24.317Z,36.30
2023-03-03T11:03:24.307Z,38.00
2023-03-03T11:04:24.276Z,40.70
2023-03-03T11:05:24.735Z,40.50
2023-03-03T11:06:27.069Z,39.60
2023-03-03T11:07:24.554Z,38.90
2023-03-03T11:08:25.064Z,39.60
2023-03-03T11:09:25.561Z,37.90
2023-03-03T11:10:31.881Z,37.10
2023-03-03T11:11:24.228Z,38.20
2023-03-03T11:12:25.564Z,36.50
2023-03-03T11:13:25.268Z,35.90
2023-03-03T11:14:25.521Z,36.20
2023-03-03T11:15:23.785Z,35.70
2023-03-03T11:16:23.760Z,37.20
2023-03-03T11:17:25.252Z,35.70
2023-03-03T11:18:25.799Z,35.70
2023-03-03T11:19:23.636Z,36.10
2023-03-03T11:20:24.062Z,35.90
2023-03-03T11:21:24.061Z,36.80
2023-03-03T11:22:24.169Z,35.90
2023-03-03T11:23:25.580Z,36.00
2023-03-03T11:24:25.135Z,35.90
2023-03-03T11:25:23.397Z,35.10
2023-03-03T11:26:28.041Z,37.30
2023-03-03T11:27:23.300Z,37.40
2023-03-03T11:30:10.938Z,38.70
2023-03-03T11:31:10.841Z,37.20
2023-03-03T11:34:12.944Z,37.40
2023-03-03T11:35:13.304Z,37.90
2023-03-03T11:39:28.133Z,38.80
2023-03-03T11:40:27.586Z,35.80
2023-03-03T11:41:28.132Z,37.10
2023-03-03T11:44:54.729Z,33.60
2023-03-03T11:45:55.759Z,33.70
2023-03-03T11:46:53.830Z,34.80
2023-03-03T11:49:26.600Z,34.00
2023-03-03T11:56:48.146Z,32.60
2023-03-03T11:57:48.135Z,34.50
2023-03-03T11:58:47.547Z,32.50
2023-03-03T11:59:51.179Z,32.00
2023-03-03T12:00:48.904Z,32.60
2023-03-03T12:01:47.378Z,32.80
2023-03-03T12:02:50.160Z,31.80
2023-03-03T12:03:47.251Z,31.70
2023-03-03T12:04:47.253Z,31.20
2023-03-03T12:05:47.203Z,31.80
2023-03-03T12:06:47.079Z,31.60
2023-03-03T12:08:00.116Z,31.80
2023-03-03T12:08:47.318Z,32.10
2023-03-03T12:09:47.373Z,30.90
2023-03-03T12:16:54.874Z,32.80
2023-03-03T12:17:53.799Z,33.50
2023-03-03T12:18:54.003Z,33.30
2023-03-03T12:19:53.749Z,34.50
2023-03-03T12:20:55.427Z,33.90
2023-03-03T12:24:17.322Z,33.00
2023-03-03T12:25:21.480Z,31.10
2023-03-03T12:26:17.120Z,32.40
2023-03-03T12:28:19.708Z,30.80
2023-03-03T12:29:17.020Z,31.30
2023-03-03T12:30:17.510Z,30.30
2023-03-03T12:31:17.402Z,29.80
2023-03-03T12:32:18.357Z,29.80
2023-03-03T12:33:17.695Z,30.30
2023-03-03T12:35:52.299Z,29.00
2023-03-03T12:36:50.882Z,29.60
2023-03-03T12:39:34.146Z,31.40
2023-03-03T12:40:23.273Z,31.60
2023-03-03T12:41:25.356Z,30.70
2023-03-03T12:42:23.117Z,31.30
2023-03-03T12:44:55.284Z,31.50
2023-03-03T12:45:55.442Z,30.70
2023-03-03T12:46:55.249Z,30.50
2023-03-03T12:47:55.361Z,30.10
2023-03-03T12:48:56.405Z,30.40
2023-03-03T12:50:06.528Z,30.20
2023-03-03T12:50:54.791Z,29.10
2023-03-03T12:51:54.837Z,29.90
2023-03-03T12:52:54.676Z,28.30
2023-03-03T12:53:54.132Z,29.40
2023-03-03T12:54:58.769Z,28.50
2023-03-03T12:55:53.994Z,28.20
2023-03-03T12:56:59.751Z,28.60
2023-03-03T12:58:19.777Z,28.70
2023-03-03T12:58:58.735Z,27.60
2023-03-03T13:00:59.336Z,29.10
2023-03-03T13:01:58.154Z,29.60
2023-03-03T13:03:01.240Z,29.00
2023-03-03T13:04:02.285Z,27.60
2023-03-03T13:04:56.233Z,28.10
2023-03-03T13:07:38.255Z,27.40
2023-03-03T13:07:58.300Z,26.80
2023-03-03T13:09:14.278Z,27.30
2023-03-03T13:09:58.242Z,26.20
2023-03-03T13:11:02.254Z,25.80
2023-03-03T13:11:56.244Z,24.80
2023-03-03T13:12:56.293Z,25.60
2023-03-03T13:13:54.501Z,25.40
2023-03-03T13:14:53.180Z,25.10
2023-03-03T13:19:00.248Z,25.10
2023-03-03T13:21:16.658Z,23.60
2023-03-03T13:21:44.947Z,24.70
2023-03-03T13:24:48.833Z,24.10
2023-03-03T13:25:16.721Z,23.60
2023-03-03T13:26:16.867Z,24.50
2023-03-03T13:30:21.627Z,24.10
2023-03-03T13:31:21.687Z,24.90
2023-03-03T13:32:21.419Z,25.00
2023-03-03T13:33:25.123Z,23.50
2023-03-03T13:36:33.045Z,24.80
2023-03-03T13:36:54.950Z,25.00